createdAt,value
2023-03-10T00:00:46.545Z,62.60
2023-03-10T00:03:13.138Z,64.20
2023-03-10T00:05:40.336Z,65.90
2023-03-10T00:08:07.350Z,62.30
2023-03-10T00:10:34.110Z,58.80
2023-03-10T00:13:00.598Z,60.20
2023-03-10T00:15:27.118Z,62.70
2023-03-10T00:17:53.642Z,57.80
2023-03-10T00:20:20.297Z,60.90
2023-03-10T00:22:46.846Z,52.60
2023-03-10T00:25:13.980Z,53.20
2023-03-10T00:27:40.454Z,55.90
2023-03-10T00:30:08.231Z,57.00
2023-03-10T00:32:35.497Z,56.00
2023-03-10T00:35:02.649Z,55.20
2023-03-10T00:37:29.069Z,66.70
2023-03-10T00:39:55.750Z,69.80
2023-03-10T00:42:22.343Z,59.60
2023-03-10T00:44:48.776Z,67.40
2023-03-10T00:47:15.508Z,65.20
2023-03-10T00:49:41.974Z,64.00
2023-03-10T00:52:08.501Z,61.30
2023-03-10T00:54:35.048Z,57.50
2023-03-10T00:57:01.794Z,59.40
2023-03-10T00:59:29.622Z,63.80
2023-03-10T01:01:59.565Z,63.40
2023-03-10T01:04:26.404Z,64.20
2023-03-10T01:06:53.014Z,53.20
2023-03-10T01:09:19.561Z,50.60
2023-03-10T01:11:46.217Z,44.80
2023-03-10T01:14:15.260Z,57.60
2023-03-10T01:16:41.977Z,52.80
2023-03-10T01:19:08.500Z,46.60
2023-03-10T01:21:37.984Z,52.20
2023-03-10T01:24:06.900Z,50.20
2023-03-10T01:26:33.490Z,46.10
2023-03-10T01:28:59.984Z,50.70
2023-03-10T01:31:26.573Z,39.00
2023-03-10T01:33:53.239Z,45.60
2023-03-10T01:36:23.073Z,41.50
2023-03-10T01:38:49.526Z,42.80
2023-03-10T01:41:17.630Z,41.30
2023-03-10T01:43:53.832Z,37.00
2023-03-10T01:46:39.152Z,34.10
2023-03-10T01:49:14.092Z,36.10
2023-03-10T01:51:44.227Z,34.50
2023-03-10T01:54:17.131Z,38.10
2023-03-10T01:56:45.207Z,40.40
2023-03-10T01:59:12.668Z,37.40
2023-03-10T02:01:39.299Z,34.30
2023-03-10T02:04:19.849Z,35.20
2023-03-10T02:06:48.505Z,36.00
2023-03-10T02:09:16.871Z,33.20
2023-03-10T02:11:45.054Z,33.50
2023-03-10T02:14:11.805Z,38.20
2023-03-10T02:16:38.379Z,38.20
2023-03-10T02:19:09.825Z,39.10
2023-03-10T02:21:48.336Z,34.70
2023-03-10T02:24:49.699Z,22.40
2023-03-10T02:27:29.852Z,33.80
2023-03-10T02:30:04.429Z,33.40
2023-03-10T02:32:34.668Z,31.60
2023-03-10T02:35:01.583Z,30.70
2023-03-10T02:37:31.885Z,33.70
2023-03-10T02:39:59.091Z,33.80
2023-03-10T02:42:32.785Z,35.00
2023-03-10T02:44:59.644Z,34.10
2023-03-10T02:47:26.137Z,34.10
2023-03-10T02:49:52.681Z,34.60
2023-03-10T02:52:29.564Z,35.00
2023-03-10T02:54:56.012Z,35.10
2023-03-10T02:57:26.119Z,34.50
2023-03-10T02:59:52.590Z,33.50
2023-03-10T03:02:19.178Z,30.20
2023-03-10T03:04:45.734Z,29.40
2023-03-10T03:07:12.271Z,32.80
2023-03-10T03:09:38.737Z,32.60
2023-03-10T03:12:05.564Z,33.10
2023-03-10T03:14:32.044Z,33.30
2023-03-10T03:16:58.606Z,33.40
2023-03-10T03:19:25.209Z,30.40
2023-03-10T03:21:51.690Z,30.00
2023-03-10T03:24:19.263Z,28.20
2023-03-10T03:26:45.768Z,29.60
2023-03-10T03:29:12.339Z,27.30
2023-03-10T03:31:38.931Z,25.90
2023-03-10T03:34:06.542Z,34.90
2023-03-10T03:36:33.448Z,30.80
2023-03-10T03:38:59.913Z,30.90
2023-03-10T03:41:26.401Z,25.50
2023-03-10T03:43:52.932Z,25.90
2023-03-10T03:46:19.473Z,27.50
2023-03-10T03:48:46.126Z,27.80
2023-03-10T03:51:12.672Z,24.60
2023-03-10T03:53:39.112Z,20.90
2023-03-10T03:56:05.964Z,24.70
2023-03-10T03:58:32.746Z,23.40
2023-03-10T04:00:59.455Z,25.60
2023-03-10T04:03:26.027Z,26.90
2023-03-10T04:05:52.750Z,27.00
2023-03-10T04:08:19.214Z,27.70
2023-03-10T04:10:53.410Z,26.90
2023-03-10T04:13:20.366Z,26.10
2023-03-10T04:15:47.335Z,26.10
2023-03-10T04:18:14.223Z,28.60
2023-03-10T04:20:40.715Z,29.10
2023-03-10T04:23:07.133Z,33.30
2023-03-10T04:25:33.724Z,27.90
2023-03-10T04:28:00.359Z,27.50
2023-03-10T04:30:26.993Z,28.70
2023-03-10T04:32:53.471Z,25.50
2023-03-10T04:35:20.204Z,25.90
2023-03-10T04:37:46.750Z,24.40
2023-03-10T04:40:13.911Z,23.70
2023-03-10T04:42:41.096Z,24.50
2023-03-10T04:45:08.751Z,29.80
2023-03-10T04:47:35.316Z,26.80
2023-03-10T04:50:02.153Z,29.00
2023-03-10T04:52:28.592Z,27.70
2023-03-10T04:54:55.118Z,29.10
2023-03-10T04:57:21.820Z,33.30
2023-03-10T04:59:48.420Z,30.30
2023-03-10T05:02:15.007Z,32.50
2023-03-10T05:04:41.971Z,36.60
2023-03-10T05:07:08.521Z,28.90
2023-03-10T05:09:36.357Z,30.70
2023-03-10T05:12:03.330Z,35.20
2023-03-10T05:14:29.965Z,26.50
2023-03-10T05:16:56.395Z,24.00
2023-03-10T05:19:23.364Z,30.40
2023-03-10T05:21:49.913Z,28.50
2023-03-10T05:24:16.455Z,31.20
2023-03-10T05:26:43.271Z,29.40
2023-03-10T05:29:09.823Z,30.70
2023-03-10T05:31:36.585Z,34.20
2023-03-10T05:34:03.155Z,31.30
2023-03-10T05:36:29.702Z,31.80
2023-03-10T05:38:56.360Z,34.70
2023-03-10T05:41:22.907Z,31.70
2023-03-10T05:43:49.466Z,27.00
2023-03-10T05:46:16.019Z,25.50
2023-03-10T05:48:42.546Z,21.70
2023-03-10T05:51:11.803Z,25.20
2023-03-10T05:53:39.445Z,21.20
2023-03-10T05:56:11.383Z,20.20
2023-03-10T05:58:38.982Z,16.30
2023-03-10T06:01:06.348Z,15.20
2023-03-10T06:03:33.672Z,14.20
2023-03-10T06:06:00.787Z,16.50
2023-03-10T06:08:27.604Z,14.40
2023-03-10T06:10:55.108Z,14.90
2023-03-10T06:13:21.746Z,16.10
2023-03-10T06:15:57.440Z,17.30
2023-03-10T06:18:25.092Z,16.00
2023-03-10T06:20:52.037Z,14.30
2023-03-10T06:23:18.593Z,10.30
2023-03-10T06:25:45.258Z,9.90
2023-03-10T06:28:12.323Z,9.20
2023-03-10T06:30:38.875Z,10.00
2023-03-10T06:33:05.585Z,11.20
2023-03-10T06:35:32.561Z,8.80
2023-03-10T06:37:59.244Z,11.10
2023-03-10T06:40:26.108Z,13.90
2023-03-10T06:42:52.591Z,13.50
2023-03-10T06:45:19.372Z,17.00
2023-03-10T06:47:46.005Z,15.90
2023-03-10T06:50:13.350Z,14.40
2023-03-10T06:52:39.902Z,12.80
2023-03-10T06:55:07.152Z,13.80
2023-03-10T06:57:34.131Z,12.60
2023-03-10T07:00:00.681Z,13.60
2023-03-10T07:02:27.320Z,12.60
2023-03-10T07:04:53.984Z,15.20
2023-03-10T07:07:21.329Z,17.10
2023-03-10T07:09:47.794Z,16.10
2023-03-10T07:12:14.357Z,15.80
2023-03-10T07:14:40.862Z,20.30
2023-03-10T07:17:07.504Z,19.70
2023-03-10T07:19:34.171Z,25.50
2023-03-10T07:22:00.709Z,19.90
2023-03-10T07:24:27.263Z,21.60
2023-03-10T07:26:54.126Z,18.70
2023-03-10T07:29:20.654Z,13.50
2023-03-10T07:31:47.307Z,10.90
2023-03-10T07:34:13.846Z,10.50
2023-03-10T07:36:40.502Z,8.50
2023-03-10T07:39:07.038Z,11.50
2023-03-10T07:41:33.465Z,5.30
2023-03-10T07:44:00.136Z,5.20
2023-03-10T07:46:26.725Z,6.20
2023-03-10T07:48:53.660Z,7.10
2023-03-10T07:51:20.717Z,6.50
2023-03-10T07:53:47.239Z,3.90
2023-03-10T07:56:14.698Z,4.40
2023-03-10T07:58:41.492Z,2.70
2023-03-10T08:01:13.708Z,9.20
2023-03-10T08:03:40.826Z,6.70
2023-03-10T08:06:16.621Z,4.00
2023-03-10T08:08:43.192Z,4.80
2023-03-10T08:11:09.864Z,5.50
2023-03-10T08:13:37.856Z,4.60
2023-03-10T08:16:05.302Z,5.80
2023-03-10T08:18:32.589Z,5.10
2023-03-10T08:20:59.272Z,6.50
2023-03-10T08:23:26.159Z,5.20
2023-03-10T08:25:52.860Z,3.80
2023-03-10T08:28:19.333Z,6.80
2023-03-10T08:31:01.229Z,5.50
2023-03-10T08:33:29.916Z,5.20
2023-03-10T08:36:03.946Z,3.60
2023-03-10T08:38:30.461Z,7.20
2023-03-10T08:40:57.050Z,8.40
2023-03-10T08:43:23.765Z,5.30
2023-03-10T08:45:50.315Z,3.30
2023-03-10T08:48:16.898Z,4.60
2023-03-10T08:50:43.334Z,7.20
2023-03-10T08:53:09.881Z,4.10
2023-03-10T08:55:36.422Z,4.70
2023-03-10T08:58:03.076Z,4.20
2023-03-10T09:00:29.612Z,8.30
2023-03-10T09:02:56.311Z,4.20
2023-03-10T09:05:23.065Z,7.70
2023-03-10T09:07:49.537Z,4.30
2023-03-10T09:10:16.714Z,2.00
2023-03-10T09:12:43.569Z,3.60
2023-03-10T09:15:10.883Z,4.30
2023-03-10T09:17:40.237Z,6.50
2023-03-10T09:20:07.499Z,5.50
2023-03-10T09:22:34.040Z,4.60
2023-03-10T09:25:00.886Z,4.30
2023-03-10T09:27:27.498Z,4.10
2023-03-10T09:29:53.936Z,3.50
2023-03-10T09:32:20.604Z,5.20
2023-03-10T09:34:47.701Z,4.10
2023-03-10T09:37:14.198Z,6.30
2023-03-10T09:39:40.866Z,2.80
2023-03-10T09:42:37.291Z,5.40
2023-03-10T09:45:12.704Z,4.30
2023-03-10T09:47:53.103Z,3.90
2023-03-10T09:50:25.603Z,4.70
2023-03-10T09:53:37.530Z,6.70
2023-03-10T09:56:11.752Z,3.70
2023-03-10T09:58:45.673Z,5.60
2023-03-10T10:01:21.633Z,3.50
2023-03-10T10:04:00.241Z,2.40
2023-03-10T10:06:28.956Z,3.60
2023-03-10T10:09:05.033Z,6.40
2023-03-10T10:11:34.033Z,3.60
2023-03-10T10:14:22.320Z,5.00
2023-03-10T10:17:01.450Z,3.30
2023-03-10T10:19:28.852Z,4.30
2023-03-10T10:22:02.378Z,4.30
2023-03-10T10:24:29.300Z,2.90
2023-03-10T10:26:56.349Z,6.40
2023-03-10T10:29:33.682Z,6.50
2023-03-10T10:32:05.440Z,6.80
2023-03-10T10:34:32.958Z,2.40
2023-03-10T10:37:00.188Z,4.00
2023-03-10T10:39:35.547Z,4.30
2023-03-10T10:42:21.124Z,4.90
2023-03-10T10:44:47.633Z,4.10
2023-03-10T10:47:34.711Z,3.80
2023-03-10T10:50:20.420Z,5.90
2023-03-10T10:52:48.283Z,4.40
2023-03-10T10:55:29.851Z,6.10
2023-03-10T10:58:01.673Z,6.90
2023-03-10T11:00:37.002Z,2.90
2023-03-10T11:03:33.098Z,4.30
2023-03-10T11:06:00.715Z,3.80
2023-03-10T11:08:27.191Z,2.60
2023-03-10T11:11:02.921Z,5.60
2023-03-10T11:13:39.881Z,5.50
2023-03-10T11:16:26.462Z,2.20
2023-03-10T11:19:01.267Z,5.50
2023-03-10T11:21:34.920Z,4.20
2023-03-10T11:24:46.664Z,4.00
2023-03-10T11:27:18.579Z,3.80
2023-03-10T11:30:12.283Z,3.30
2023-03-10T11:32:51.167Z,4.90
2023-03-10T11:35:33.569Z,6.80
2023-03-10T11:38:04.748Z,5.10
2023-03-10T11:40:43.171Z,1.30
2023-03-10T11:43:23.777Z,9.00
2023-03-10T11:45:52.758Z,5.60
2023-03-10T11:48:44.333Z,5.60
2023-03-10T11:51:22.387Z,4.60
2023-03-10T11:53:58.050Z,3.30
2023-03-10T11:56:27.012Z,5.30
2023-03-10T11:59:15.306Z,4.00
2023-03-10T12:02:19.431Z,6.30
2023-03-10T12:04:55.266Z,3.70
2023-03-10T12:07:52.847Z,4.50
2023-03-10T12:10:21.422Z,6.80
2023-03-10T12:12:49.943Z,5.00
2023-03-10T12:15:33.016Z,3.60
2023-03-10T12:17:59.767Z,5.30
2023-03-10T12:20:31.216Z,4.20
2023-03-10T12:23:26.689Z,5.90
2023-03-10T12:25:53.266Z,4.50
2023-03-10T12:28:19.729Z,5.60
2023-03-10T12:30:50.756Z,6.90
2023-03-10T12:33:32.316Z,5.30
2023-03-10T12:36:33.169Z,7.40
2023-03-10T12:39:27.610Z,4.70
2023-03-10T12:42:26.279Z,5.90
2023-03-10T12:45:22.164Z,6.30
2023-03-10T12:48:03.350Z,6.90
2023-03-10T12:50:49.758Z,8.30
2023-03-10T12:53:28.596Z,5.00
2023-03-10T12:56:19.464Z,4.40
2023-03-10T12:58:50.616Z,11.30
2023-03-10T13:01:22.753Z,5.30
2023-03-10T13:03:53.247Z,4.10
2023-03-10T13:06:29.550Z,2.30
2023-03-10T13:09:18.814Z,5.50
2023-03-10T13:11:53.298Z,5.00
2023-03-10T13:14:24.535Z,3.70
2023-03-10T13:16:59.584Z,6.00
2023-03-10T13:19:29.131Z,7.00
2023-03-10T13:21:56.143Z,5.30
2023-03-10T13:24:25.772Z,4.50
2023-03-10T13:27:23.946Z,5.50
2023-03-10T13:29:55.817Z,4.90
2023-03-10T13:34:49.480Z,3.40
2023-03-10T13:37:16.295Z,5.70
2023-03-10T13:39:44.812Z,2.70
2023-03-10T13:42:24.067Z,5.40
2023-03-10T13:44:55.099Z,13.00
2023-03-10T13:47:26.398Z,7.80
2023-03-10T13:50:02.193Z,4.30
2023-03-10T13:52:30.714Z,4.60
2023-03-10T13:55:16.940Z,10.90
2023-03-10T13:57:45.873Z,5.30
2023-03-10T14:00:19.431Z,4.40
2023-03-10T14:02:48.597Z,7.10
2023-03-10T14:05:44.498Z,4.30
2023-03-10T14:08:24.442Z,4.70
2023-03-10T14:10:51.816Z,2.90
2023-03-10T14:13:45.112Z,4.90
2023-03-10T14:16:11.744Z,3.10
2023-03-10T14:18:40.517Z,7.40
2023-03-10T14:21:24.061Z,6.00
2023-03-10T14:23:50.483Z,5.40
2023-03-10T14:26:17.643Z,6.90
2023-03-10T14:28:44.231Z,7.50
2023-03-10T14:31:24.460Z,3.70
2023-03-10T14:33:51.455Z,4.50
2023-03-10T14:36:17.918Z,8.00
2023-03-10T14:38:44.589Z,9.40
2023-03-10T14:41:14.002Z,7.50
2023-03-10T14:43:41.909Z,3.80
2023-03-10T14:46:11.806Z,5.00
2023-03-10T14:48:39.963Z,5.20
2023-03-10T14:51:06.667Z,5.90
2023-03-10T14:53:33.847Z,4.30
2023-03-10T14:56:02.162Z,5.70
2023-03-10T14:58:33.410Z,6.80
2023-03-10T15:01:00.771Z,7.60
2023-03-10T15:03:27.655Z,5.90
2023-03-10T15:05:54.111Z,5.00
2023-03-10T15:08:20.693Z,9.10
2023-03-10T15:10:50.130Z,6.40
2023-03-10T15:13:18.676Z,7.70
2023-03-10T15:15:47.361Z,5.40
2023-03-10T15:18:17.104Z,6.70
2023-03-10T15:20:43.940Z,5.40
2023-03-10T15:23:13.723Z,8.30
2023-03-10T15:25:43.716Z,6.10
2023-03-10T15:28:11.868Z,6.90
2023-03-10T15:30:38.309Z,8.10
2023-03-10T15:33:04.755Z,8.10
2023-03-10T15:35:31.805Z,8.00
2023-03-10T15:37:59.022Z,7.90
2023-03-10T15:40:29.348Z,8.30
2023-03-10T15:42:56.263Z,9.90
2023-03-10T15:45:24.101Z,9.40
2023-03-10T15:47:51.248Z,7.40
2023-03-10T15:50:19.880Z,6.00
2023-03-10T15:52:58.017Z,8.60
2023-03-10T15:55:25.639Z,8.70
2023-03-10T15:57:52.823Z,9.50
2023-03-10T16:00:22.436Z,11.10
2023-03-10T16:02:50.196Z,11.10
2023-03-10T16:05:18.106Z,8.60
2023-03-10T16:07:44.822Z,11.10
2023-03-10T16:10:13.594Z,10.70
2023-03-10T16:12:40.565Z,7.10
2023-03-10T16:15:08.283Z,10.70
2023-03-10T16:17:34.868Z,8.70
2023-03-10T16:20:01.356Z,6.30
2023-03-10T16:22:28.246Z,7.10
2023-03-10T16:24:54.787Z,10.70
2023-03-10T16:27:21.210Z,4.90
2023-03-10T16:29:47.814Z,10.40
2023-03-10T16:32:14.555Z,7.40
2023-03-10T16:34:41.065Z,7.60
2023-03-10T16:37:07.555Z,9.80
2023-03-10T16:39:34.153Z,9.20
2023-03-10T16:42:00.809Z,10.80
2023-03-10T16:44:27.356Z,11.30
2023-03-10T16:46:53.932Z,8.20
2023-03-10T16:49:20.429Z,9.30
2023-03-10T16:51:48.340Z,7.80
2023-03-10T16:54:20.811Z,11.80
2023-03-10T16:56:52.455Z,13.30
2023-03-10T16:59:21.764Z,11.40
2023-03-10T17:01:49.306Z,14.20
2023-03-10T17:04:16.080Z,11.50
2023-03-10T17:06:42.749Z,13.80
2023-03-10T17:09:11.194Z,10.70
2023-03-10T17:11:45.123Z,10.30
2023-03-10T17:14:14.459Z,15.10
2023-03-10T17:16:42.301Z,19.30
2023-03-10T17:19:13.387Z,27.20
2023-03-10T17:21:43.443Z,21.50
2023-03-10T17:24:10.733Z,31.70
2023-03-10T17:26:37.631Z,23.10
2023-03-10T17:29:04.834Z,20.20
2023-03-10T17:31:31.426Z,18.30
2023-03-10T17:34:00.946Z,19.90
2023-03-10T17:36:28.371Z,25.30
2023-03-10T17:38:57.162Z,23.60
2023-03-10T17:41:24.796Z,25.60
2023-03-10T17:43:53.112Z,23.50
2023-03-10T17:46:27.631Z,20.50
2023-03-10T17:48:54.705Z,17.30
2023-03-10T17:51:24.671Z,20.20
2023-03-10T17:53:51.607Z,17.50
2023-03-10T17:56:18.645Z,17.40
2023-03-10T17:58:45.173Z,17.20
2023-03-10T18:01:20.390Z,20.30
2023-03-10T18:03:48.464Z,11.80
2023-03-10T18:06:21.702Z,8.00
2023-03-10T18:08:49.687Z,9.50
2023-03-10T18:11:16.835Z,7.40
2023-03-10T18:13:44.196Z,4.80
2023-03-10T18:16:25.628Z,5.80
2023-03-10T18:18:52.642Z,6.80
2023-03-10T18:21:19.975Z,5.80
2023-03-10T18:23:47.106Z,6.30
2023-03-10T18:26:17.609Z,5.50
2023-03-10T18:28:44.706Z,6.40
2023-03-10T18:31:20.474Z,6.50
2023-03-10T18:33:47.898Z,12.50
2023-03-10T18:36:15.816Z,5.70
2023-03-10T18:38:43.797Z,6.80
2023-03-10T18:41:10.944Z,6.00
2023-03-10T18:43:37.607Z,11.10
2023-03-10T18:46:04.625Z,9.30
2023-03-10T18:48:31.261Z,10.20
2023-03-10T18:50:59.544Z,14.20
2023-03-10T18:53:27.469Z,15.90
2023-03-10T18:55:54.623Z,12.70
2023-03-10T18:58:22.080Z,17.90
2023-03-10T19:00:50.012Z,20.10
2023-03-10T19:03:17.891Z,15.40
2023-03-10T19:05:44.645Z,17.80
2023-03-10T19:08:11.842Z,19.50
2023-03-10T19:10:39.308Z,42.00
2023-03-10T19:13:06.460Z,26.60
2023-03-10T19:15:33.470Z,25.90
2023-03-10T19:17:59.973Z,29.80
2023-03-10T19:20:26.659Z,15.10
2023-03-10T19:22:53.320Z,15.00
2023-03-10T19:25:20.471Z,14.00
2023-03-10T19:27:47.249Z,63.00
2023-03-10T19:30:16.177Z,33.10
2023-03-10T19:32:43.900Z,22.60
2023-03-10T19:35:11.559Z,28.30
2023-03-10T19:37:39.599Z,30.40
2023-03-10T19:40:07.422Z,24.50
2023-03-10T19:42:35.689Z,29.70
2023-03-10T19:45:02.547Z,18.20
2023-03-10T19:47:32.302Z,20.00
2023-03-10T19:49:58.908Z,19.10
2023-03-10T19:52:25.681Z,18.70
2023-03-10T19:54:52.311Z,18.30
2023-03-10T19:57:18.856Z,14.70
2023-03-10T19:59:45.905Z,19.90
2023-03-10T20:02:14.851Z,19.10
2023-03-10T20:04:41.850Z,16.60
2023-03-10T20:07:08.932Z,19.00
2023-03-10T20:09:35.910Z,30.90
2023-03-10T20:12:02.946Z,24.70
2023-03-10T20:14:29.979Z,30.70
2023-03-10T20:16:56.426Z,22.50
2023-03-10T20:19:22.896Z,22.30
2023-03-10T20:21:50.270Z,16.50
2023-03-10T20:24:18.434Z,13.60
2023-03-10T20:26:44.980Z,16.80
2023-03-10T20:29:12.427Z,18.50
2023-03-10T20:31:38.949Z,19.40
2023-03-10T20:34:06.643Z,19.30
2023-03-10T20:36:33.924Z,33.00
2023-03-10T20:39:00.692Z,32.10
2023-03-10T20:41:27.319Z,29.10
2023-03-10T20:43:53.832Z,28.50
2023-03-10T20:46:20.479Z,28.20
2023-03-10T20:48:49.978Z,32.50
2023-03-10T20:51:18.691Z,35.90
2023-03-10T20:53:45.798Z,31.60
2023-03-10T20:56:12.268Z,33.30
2023-03-10T20:58:38.818Z,140.80
2023-03-10T21:01:05.586Z,325.20
2023-03-10T21:03:32.493Z,861.10
2023-03-10T21:05:58.962Z,170.50
2023-03-10T21:08:25.377Z,65.10
2023-03-10T21:10:51.787Z,73.80
2023-03-10T21:13:18.371Z,90.90
2023-03-10T21:15:45.220Z,160.40
2023-03-10T21:18:11.614Z,89.30
2023-03-10T21:20:38.211Z,59.40
2023-03-10T21:23:04.850Z,50.90
2023-03-10T21:25:31.288Z,46.90
2023-03-10T21:27:58.044Z,45.80
2023-03-10T21:30:27.106Z,47.00
2023-03-10T21:32:53.617Z,47.70
2023-03-10T21:35:20.140Z,47.10
2023-03-10T21:37:46.701Z,53.90
2023-03-10T21:40:15.309Z,59.10
2023-03-10T21:42:42.279Z,55.40
2023-03-10T21:45:11.311Z,61.00
2023-03-10T21:47:37.772Z,46.40
2023-03-10T21:50:04.535Z,49.30
2023-03-10T21:52:31.085Z,53.60
2023-03-10T21:54:57.737Z,48.90
2023-03-10T21:57:24.385Z,53.90
2023-03-10T21:59:50.793Z,52.80
2023-03-10T22:02:28.439Z,58.10
2023-03-10T22:04:55.631Z,50.10
2023-03-10T22:07:22.570Z,43.40
2023-03-10T22:09:49.192Z,46.10
2023-03-10T22:12:15.857Z,44.50
2023-03-10T22:14:42.912Z,45.80
2023-03-10T22:17:09.550Z,48.90
2023-03-10T22:19:36.075Z,45.60
2023-03-10T22:22:02.526Z,44.40
2023-03-10T22:24:28.989Z,45.60
2023-03-10T22:26:55.360Z,43.50
2023-03-10T22:29:21.744Z,47.90
2023-03-10T22:31:51.579Z,52.90
2023-03-10T22:34:17.982Z,59.80
2023-03-10T22:36:44.657Z,72.90
2023-03-10T22:39:11.202Z,87.30
2023-03-10T22:41:38.786Z,76.40
2023-03-10T22:44:05.733Z,70.20
2023-03-10T22:46:32.338Z,62.50
2023-03-10T22:48:59.124Z,99.30
2023-03-10T22:51:25.978Z,97.00
2023-03-10T22:53:52.431Z,81.90
2023-03-10T22:56:19.161Z,74.80
2023-03-10T22:58:45.753Z,71.70
2023-03-10T23:01:12.228Z,69.10
2023-03-10T23:03:38.964Z,76.80
2023-03-10T23:06:06.242Z,69.90
2023-03-10T23:08:33.659Z,71.50
2023-03-10T23:11:00.178Z,67.80
2023-03-10T23:13:26.716Z,83.40
2023-03-10T23:15:53.482Z,74.50
2023-03-10T23:18:19.958Z,43.50
2023-03-10T23:20:47.792Z,46.40
2023-03-10T23:23:15.876Z,42.40
2023-03-10T23:25:45.614Z,48.10
2023-03-10T23:28:12.027Z,49.00
2023-03-10T23:30:41.097Z,46.30
2023-03-10T23:33:08.270Z,49.50
2023-03-10T23:35:35.529Z,46.70
2023-03-10T23:38:03.951Z,44.50
2023-03-10T23:40:32.240Z,40.80
2023-03-10T23:43:00.478Z,40.90
2023-03-10T23:45:29.737Z,38.40
2023-03-10T23:47:57.416Z,44.20
2023-03-10T23:50:30.709Z,39.40
2023-03-10T23:52:58.156Z,37.90
2023-03-10T23:55:29.193Z,39.80
2023-03-10T23:57:56.100Z,44.00
